sensor_id;sensor_type;location;lat;lon;timestamp;P1;durP1;ratioP1;P2;durP2;ratioP2
11743;SDS011;5929;51.906;7.674;2023-04-03T00:01:49;6.72;;;1.60;;
11743;SDS011;5929;51.906;7.674;2023-04-03T00:04:16;6.78;;;1.52;;
11743;SDS011;5929;51.906;7.674;2023-04-03T00:06:43;5.32;;;1.48;;
11743;SDS011;5929;51.906;7.674;2023-04-03T00:09:10;6.68;;;1.60;;
11743;SDS011;5929;51.906;7.674;2023-04-03T00:11:38;6.75;;;2.00;;
11743;SDS011;5929;51.906;7.674;2023-04-03T00:14:05;4.55;;;1.38;;
11743;SDS011;5929;51.906;7.674;2023-04-03T00:16:31;6.15;;;1.55;;
11743;SDS011;5929;51.906;7.674;2023-04-03T00:18:58;6.60;;;1.65;;
11743;SDS011;5929;51.906;7.674;2023-04-03T00:21:25;5.72;;;1.55;;
11743;SDS011;5929;51.906;7.674;2023-04-03T00:23:52;5.90;;;1.27;;
11743;SDS011;5929;51.906;7.674;2023-04-03T00:26:19;5.32;;;1.73;;
11743;SDS011;5929;51.906;7.674;2023-04-03T00:28:47;6.82;;;2.28;;
11743;SDS011;5929;51.906;7.674;2023-04-03T00:31:14;7.25;;;1.70;;
11743;SDS011;5929;51.906;7.674;2023-04-03T00:33:41;5.65;;;1.50;;
11743;SDS011;5929;51.906;7.674;2023-04-03T00:36:09;4.75;;;1.65;;
11743;SDS011;5929;51.906;7.674;2023-04-03T00:38:36;5.38;;;1.50;;
11743;SDS011;5929;51.906;7.674;2023-04-03T00:41:04;4.80;;;1.50;;
11743;SDS011;5929;51.906;7.674;2023-04-03T00:43:31;5.07;;;1.80;;
11743;SDS011;5929;51.906;7.674;2023-04-03T00:45:59;6.00;;;1.80;;
11743;SDS011;5929;51.906;7.674;2023-04-03T00:48:28;6.57;;;2.30;;
11743;SDS011;5929;51.906;7.674;2023-04-03T00:50:58;5.63;;;1.50;;
11743;SDS011;5929;51.906;7.674;2023-04-03T00:53:26;5.95;;;1.77;;
11743;SDS011;5929;51.906;7.674;2023-04-03T00:55:56;8.45;;;1.70;;
11743;SDS011;5929;51.906;7.674;2023-04-03T00:58:26;6.93;;;1.67;;
11743;SDS011;5929;51.906;7.674;2023-04-03T01:00:59;6.93;;;1.70;;
11743;SDS011;5929;51.906;7.674;2023-04-03T01:03:29;8.90;;;1.98;;
11743;SDS011;5929;51.906;7.674;2023-04-03T01:05:57;4.43;;;1.40;;
11743;SDS011;5929;51.906;7.674;2023-04-03T01:08:24;7.65;;;1.60;;
11743;SDS011;5929;51.906;7.674;2023-04-03T01:10:51;5.95;;;2.17;;
11743;SDS011;5929;51.906;7.674;2023-04-03T01:13:19;5.28;;;1.65;;
11743;SDS011;5929;51.906;7.674;2023-04-03T01:15:48;6.35;;;1.80;;
11743;SDS011;5929;51.906;7.674;2023-04-03T01:18:16;5.55;;;1.90;;
11743;SDS011;5929;51.906;7.674;2023-04-03T01:23:54;6.28;;;1.58;;
11743;SDS011;5929;51.906;7.674;2023-04-03T01:26:39;5.25;;;1.65;;
11743;SDS011;5929;51.906;7.674;2023-04-03T01:29:05;6.07;;;1.65;;
11743;SDS011;5929;51.906;7.674;2023-04-03T01:31:42;5.00;;;1.50;;
11743;SDS011;5929;51.906;7.674;2023-04-03T01:34:15;8.60;;;2.00;;
11743;SDS011;5929;51.906;7.674;2023-04-03T01:36:42;7.65;;;2.00;;
11743;SDS011;5929;51.906;7.674;2023-04-03T01:39:09;7.88;;;2.03;;
11743;SDS011;5929;51.906;7.674;2023-04-03T01:41:36;6.32;;;1.90;;
11743;SDS011;5929;51.906;7.674;2023-04-03T01:44:03;6.47;;;1.92;;
11743;SDS011;5929;51.906;7.674;2023-04-03T01:46:30;6.68;;;2.15;;
11743;SDS011;5929;51.906;7.674;2023-04-03T01:49:01;5.80;;;1.77;;
11743;SDS011;5929;51.906;7.674;2023-04-03T01:51:28;6.57;;;1.88;;
11743;SDS011;5929;51.906;7.674;2023-04-03T01:53:56;5.75;;;2.08;;
11743;SDS011;5929;51.906;7.674;2023-04-03T01:56:22;12.05;;;2.97;;
11743;SDS011;5929;51.906;7.674;2023-04-03T01:58:50;7.45;;;2.08;;
11743;SDS011;5929;51.906;7.674;2023-04-03T02:01:17;8.68;;;2.17;;
11743;SDS011;5929;51.906;7.674;2023-04-03T02:03:43;6.30;;;1.67;;
11743;SDS011;5929;51.906;7.674;2023-04-03T02:06:11;5.95;;;1.33;;
11743;SDS011;5929;51.906;7.674;2023-04-03T02:08:38;5.82;;;1.75;;
11743;SDS011;5929;51.906;7.674;2023-04-03T02:11:06;4.60;;;1.40;;
11743;SDS011;5929;51.906;7.674;2023-04-03T02:13:33;6.60;;;1.65;;
11743;SDS011;5929;51.906;7.674;2023-04-03T02:16:05;4.88;;;1.67;;
11743;SDS011;5929;51.906;7.674;2023-04-03T02:18:33;5.20;;;2.00;;
11743;SDS011;5929;51.906;7.674;2023-04-03T02:21:00;6.15;;;1.90;;
11743;SDS011;5929;51.906;7.674;2023-04-03T02:23:28;5.78;;;1.67;;
11743;SDS011;5929;51.906;7.674;2023-04-03T02:26:02;7.75;;;1.90;;
11743;SDS011;5929;51.906;7.674;2023-04-03T02:28:31;4.75;;;1.38;;
11743;SDS011;5929;51.906;7.674;2023-04-03T02:31:00;8.32;;;1.70;;
11743;SDS011;5929;51.906;7.674;2023-04-03T02:33:27;5.47;;;1.63;;
11743;SDS011;5929;51.906;7.674;2023-04-03T02:35:54;4.85;;;1.58;;
11743;SDS011;5929;51.906;7.674;2023-04-03T02:38:21;6.03;;;1.77;;
11743;SDS011;5929;51.906;7.674;2023-04-03T02:40:49;4.72;;;1.60;;
11743;SDS011;5929;51.906;7.674;2023-04-03T02:43:16;5.20;;;1.60;;
11743;SDS011;5929;51.906;7.674;2023-04-03T02:45:44;5.75;;;1.58;;
11743;SDS011;5929;51.906;7.674;2023-04-03T02:48:10;6.72;;;2.08;;
11743;SDS011;5929;51.906;7.674;2023-04-03T02:50:37;10.77;;;1.88;;
11743;SDS011;5929;51.906;7.674;2023-04-03T02:53:06;5.65;;;1.67;;
11743;SDS011;5929;51.906;7.674;2023-04-03T02:55:33;6.68;;;1.88;;
11743;SDS011;5929;51.906;7.674;2023-04-03T02:58:02;9.20;;;2.00;;
11743;SDS011;5929;51.906;7.674;2023-04-03T03:00:29;7.63;;;2.03;;
11743;SDS011;5929;51.906;7.674;2023-04-03T03:02:56;9.38;;;1.98;;
11743;SDS011;5929;51.906;7.674;2023-04-03T03:05:22;6.60;;;1.80;;
11743;SDS011;5929;51.906;7.674;2023-04-03T03:07:49;8.23;;;2.10;;
11743;SDS011;5929;51.906;7.674;2023-04-03T03:10:16;5.82;;;1.70;;
11743;SDS011;5929;51.906;7.674;2023-04-03T03:12:43;4.82;;;1.67;;
11743;SDS011;5929;51.906;7.674;2023-04-03T03:15:11;7.15;;;1.45;;
11743;SDS011;5929;51.906;7.674;2023-04-03T03:17:38;7.63;;;1.55;;
11743;SDS011;5929;51.906;7.674;2023-04-03T03:20:05;7.35;;;1.88;;
11743;SDS011;5929;51.906;7.674;2023-04-03T03:22:33;8.43;;;1.95;;
11743;SDS011;5929;51.906;7.674;2023-04-03T03:25:00;9.93;;;1.90;;
11743;SDS011;5929;51.906;7.674;2023-04-03T03:27:28;10.48;;;2.03;;
11743;SDS011;5929;51.906;7.674;2023-04-03T03:29:55;6.70;;;1.92;;
11743;SDS011;5929;51.906;7.674;2023-04-03T03:32:23;4.57;;;1.80;;
11743;SDS011;5929;51.906;7.674;2023-04-03T03:34:50;12.40;;;2.42;;
11743;SDS011;5929;51.906;7.674;2023-04-03T03:37:17;10.27;;;2.13;;
11743;SDS011;5929;51.906;7.674;2023-04-03T03:39:44;6.93;;;2.25;;
11743;SDS011;5929;51.906;7.674;2023-04-03T03:42:11;6.05;;;1.85;;
11743;SDS011;5929;51.906;7.674;2023-04-03T03:44:37;5.75;;;2.00;;
11743;SDS011;5929;51.906;7.674;2023-04-03T03:47:04;5.95;;;1.83;;
11743;SDS011;5929;51.906;7.674;2023-04-03T03:49:32;6.20;;;1.88;;
11743;SDS011;5929;51.906;7.674;2023-04-03T03:52:00;6.07;;;2.00;;
11743;SDS011;5929;51.906;7.674;2023-04-03T03:54:27;7.25;;;2.17;;
11743;SDS011;5929;51.906;7.674;2023-04-03T03:56:53;5.63;;;1.88;;
11743;SDS011;5929;51.906;7.674;2023-04-03T03:59:20;6.30;;;1.90;;
11743;SDS011;5929;51.906;7.674;2023-04-03T04:01:47;7.63;;;1.88;;
11743;SDS011;5929;51.906;7.674;2023-04-03T04:04:14;5.97;;;2.00;;
11743;SDS011;5929;51.906;7.674;2023-04-03T04:06:42;8.10;;;2.35;;
11743;SDS011;5929;51.906;7.674;2023-04-03T04:09:10;7.18;;;1.70;;
11743;SDS011;5929;51.906;7.674;2023-04-03T04:11:36;6.47;;;2.08;;
11743;SDS011;5929;51.906;7.674;2023-04-03T04:14:04;8.70;;;2.53;;
11743;SDS011;5929;51.906;7.674;2023-04-03T04:16:31;6.15;;;2.25;;
11743;SDS011;5929;51.906;7.674;2023-04-03T04:18:58;9.18;;;2.22;;
11743;SDS011;5929;51.906;7.674;2023-04-03T04:21:25;7.38;;;2.03;;
11743;SDS011;5929;51.906;7.674;2023-04-03T04:23:56;11.07;;;2.05;;
11743;SDS011;5929;51.906;7.674;2023-04-03T04:26:22;7.53;;;1.80;;
11743;SDS011;5929;51.906;7.674;2023-04-03T04:28:49;7.75;;;2.03;;
11743;SDS011;5929;51.906;7.674;2023-04-03T04:31:16;9.18;;;2.10;;
11743;SDS011;5929;51.906;7.674;2023-04-03T04:33:43;6.70;;;1.77;;
11743;SDS011;5929;51.906;7.674;2023-04-03T04:36:10;9.80;;;1.90;;
11743;SDS011;5929;51.906;7.674;2023-04-03T04:38:37;8.48;;;1.88;;
11743;SDS011;5929;51.906;7.674;2023-04-03T04:41:06;8.18;;;1.90;;
11743;SDS011;5929;51.906;7.674;2023-04-03T04:43:33;7.07;;;1.88;;
11743;SDS011;5929;51.906;7.674;2023-04-03T04:46:00;6.43;;;1.92;;
11743;SDS011;5929;51.906;7.674;2023-04-03T04:48:28;7.10;;;1.80;;
11743;SDS011;5929;51.906;7.674;2023-04-03T04:50:55;6.68;;;2.10;;
11743;SDS011;5929;51.906;7.674;2023-04-03T04:53:24;5.80;;;2.10;;
11743;SDS011;5929;51.906;7.674;2023-04-03T04:55:51;6.75;;;2.10;;
11743;SDS011;5929;51.906;7.674;2023-04-03T04:58:20;11.77;;;2.22;;
11743;SDS011;5929;51.906;7.674;2023-04-03T05:00:47;7.78;;;2.10;;
11743;SDS011;5929;51.906;7.674;2023-04-03T05:03:14;6.40;;;2.08;;
11743;SDS011;5929;51.906;7.674;2023-04-03T05:05:41;6.45;;;2.17;;
11743;SDS011;5929;51.906;7.674;2023-04-03T05:08:07;10.63;;;1.85;;
11743;SDS011;5929;51.906;7.674;2023-04-03T05:10:34;9.18;;;2.70;;
11743;SDS011;5929;51.906;7.674;2023-04-03T05:13:01;5.97;;;1.92;;
11743;SDS011;5929;51.906;7.674;2023-04-03T05:15:29;7.70;;;2.55;;
11743;SDS011;5929;51.906;7.674;2023-04-03T05:17:56;7.30;;;2.13;;
11743;SDS011;5929;51.906;7.674;2023-04-03T05:20:23;10.20;;;2.60;;
11743;SDS011;5929;51.906;7.674;2023-04-03T05:22:50;9.32;;;2.78;;
11743;SDS011;5929;51.906;7.674;2023-04-03T05:25:17;6.68;;;2.13;;
11743;SDS011;5929;51.906;7.674;2023-04-03T05:27:44;6.22;;;2.22;;
11743;SDS011;5929;51.906;7.674;2023-04-03T05:30:11;10.15;;;3.10;;
11743;SDS011;5929;51.906;7.674;2023-04-03T05:32:39;7.53;;;2.45;;
11743;SDS011;5929;51.906;7.674;2023-04-03T05:35:07;10.55;;;2.55;;
11743;SDS011;5929;51.906;7.674;2023-04-03T05:37:35;9.93;;;2.30;;
11743;SDS011;5929;51.906;7.674;2023-04-03T05:40:05;8.18;;;2.45;;
11743;SDS011;5929;51.906;7.674;2023-04-03T05:42:33;7.32;;;2.25;;
11743;SDS011;5929;51.906;7.674;2023-04-03T05:45:00;6.50;;;2.22;;
11743;SDS011;5929;51.906;7.674;2023-04-03T05:47:27;6.35;;;2.60;;
11743;SDS011;5929;51.906;7.674;2023-04-03T05:49:55;10.35;;;2.60;;
11743;SDS011;5929;51.906;7.674;2023-04-03T05:52:23;8.32;;;2.00;;
11743;SDS011;5929;51.906;7.674;2023-04-03T05:54:53;6.30;;;2.03;;
11743;SDS011;5929;51.906;7.674;2023-04-03T05:57:20;8.73;;;2.33;;
11743;SDS011;5929;51.906;7.674;2023-04-03T05:59:47;4.72;;;1.80;;
11743;SDS011;5929;51.906;7.674;2023-04-03T06:02:16;7.13;;;2.00;;
11743;SDS011;5929;51.906;7.674;2023-04-03T06:04:44;9.55;;;2.63;;
11743;SDS011;5929;51.906;7.674;2023-04-03T06:07:13;4.93;;;1.50;;
11743;SDS011;5929;51.906;7.674;2023-04-03T06:09:41;7.75;;;1.98;;
11743;SDS011;5929;51.906;7.674;2023-04-03T06:12:08;8.48;;;2.10;;
11743;SDS011;5929;51.906;7.674;2023-04-03T06:14:36;7.18;;;2.03;;
11743;SDS011;5929;51.906;7.674;2023-04-03T06:17:03;5.65;;;2.17;;
11743;SDS011;5929;51.906;7.674;2023-04-03T06:19:31;6.93;;;2.05;;
11743;SDS011;5929;51.906;7.674;2023-04-03T06:21:57;8.30;;;2.03;;
11743;SDS011;5929;51.906;7.674;2023-04-03T06:24:26;5.72;;;2.08;;
11743;SDS011;5929;51.906;7.674;2023-04-03T06:26:53;7.53;;;2.55;;
11743;SDS011;5929;51.906;7.674;2023-04-03T06:29:20;8.07;;;2.15;;
11743;SDS011;5929;51.906;7.674;2023-04-03T06:31:47;6.93;;;2.58;;
11743;SDS011;5929;51.906;7.674;2023-04-03T06:34:14;8.65;;;2.33;;
11743;SDS011;5929;51.906;7.674;2023-04-03T06:36:42;9.82;;;1.83;;
11743;SDS011;5929;51.906;7.674;2023-04-03T06:39:10;7.80;;;1.80;;
11743;SDS011;5929;51.906;7.674;2023-04-03T06:41:41;5.10;;;1.50;;
11743;SDS011;5929;51.906;7.674;2023-04-03T06:44:08;13.25;;;2.10;;
11743;SDS011;5929;51.906;7.674;2023-04-03T06:46:36;9.05;;;1.98;;
11743;SDS011;5929;51.906;7.674;2023-04-03T06:49:03;6.80;;;1.90;;
11743;SDS011;5929;51.906;7.674;2023-04-03T06:51:32;4.63;;;1.80;;
11743;SDS011;5929;51.906;7.674;2023-04-03T06:54:00;8.50;;;2.15;;
11743;SDS011;5929;51.906;7.674;2023-04-03T06:56:28;8.65;;;1.83;;
11743;SDS011;5929;51.906;7.674;2023-04-03T06:58:56;6.82;;;2.00;;
11743;SDS011;5929;51.906;7.674;2023-04-03T07:01:24;7.20;;;2.08;;
11743;SDS011;5929;51.906;7.674;2023-04-03T07:03:55;9.85;;;2.03;;
11743;SDS011;5929;51.906;7.674;2023-04-03T07:06:24;6.57;;;1.77;;
11743;SDS011;5929;51.906;7.674;2023-04-03T07:08:52;8.15;;;2.08;;
11743;SDS011;5929;51.906;7.674;2023-04-03T07:11:20;8.38;;;2.30;;
11743;SDS011;5929;51.906;7.674;2023-04-03T07:13:47;6.32;;;2.13;;
11743;SDS011;5929;51.906;7.674;2023-04-03T07:16:15;6.72;;;1.77;;
11743;SDS011;5929;51.906;7.674;2023-04-03T07:18:42;5.30;;;2.20;;
11743;SDS011;5929;51.906;7.674;2023-04-03T07:21:09;6.20;;;1.70;;
11743;SDS011;5929;51.906;7.674;2023-04-03T07:23:36;6.25;;;2.20;;
11743;SDS011;5929;51.906;7.674;2023-04-03T07:26:03;9.00;;;2.03;;
11743;SDS011;5929;51.906;7.674;2023-04-03T07:28:30;6.43;;;1.67;;
11743;SDS011;5929;51.906;7.674;2023-04-03T07:30:59;9.40;;;1.70;;
11743;SDS011;5929;51.906;7.674;2023-04-03T07:33:28;4.13;;;1.33;;
11743;SDS011;5929;51.906;7.674;2023-04-03T07:35:56;6.10;;;1.90;;
11743;SDS011;5929;51.906;7.674;2023-04-03T07:38:22;5.03;;;1.77;;
11743;SDS011;5929;51.906;7.674;2023-04-03T07:40:50;5.28;;;1.40;;
11743;SDS011;5929;51.906;7.674;2023-04-03T07:43:19;6.07;;;1.45;;
11743;SDS011;5929;51.906;7.674;2023-04-03T07:45:47;5.75;;;1.73;;
11743;SDS011;5929;51.906;7.674;2023-04-03T07:48:15;6.88;;;1.42;;
11743;SDS011;5929;51.906;7.674;2023-04-03T07:50:44;10.68;;;1.75;;
11743;SDS011;5929;51.906;7.674;2023-04-03T07:53:11;7.30;;;1.70;;
11743;SDS011;5929;51.906;7.674;2023-04-03T07:55:39;7.18;;;2.15;;
11743;SDS011;5929;51.906;7.674;2023-04-03T07:58:08;7.22;;;1.80;;
11743;SDS011;5929;51.906;7.674;2023-04-03T08:00:36;6.03;;;1.80;;
11743;SDS011;5929;51.906;7.674;2023-04-03T08:03:03;7.25;;;1.70;;
11743;SDS011;5929;51.906;7.674;2023-04-03T08:05:30;4.97;;;1.80;;
11743;SDS011;5929;51.906;7.674;2023-04-03T08:07:58;6.28;;;1.63;;
11743;SDS011;5929;51.906;7.674;2023-04-03T08:10:25;6.13;;;1.67;;
11743;SDS011;5929;51.906;7.674;2023-04-03T08:12:52;7.40;;;1.73;;
11743;SDS011;5929;51.906;7.674;2023-04-03T08:15:19;4.47;;;1.35;;
11743;SDS011;5929;51.906;7.674;2023-04-03T08:17:46;5.15;;;1.67;;
11743;SDS011;5929;51.906;7.674;2023-04-03T08:20:12;5.75;;;1.30;;
11743;SDS011;5929;51.906;7.674;2023-04-03T08:22:39;9.38;;;1.55;;
11743;SDS011;5929;51.906;7.674;2023-04-03T08:25:08;5.55;;;1.83;;
11743;SDS011;5929;51.906;7.674;2023-04-03T08:27:35;7.35;;;1.40;;
11743;SDS011;5929;51.906;7.674;2023-04-03T08:30:03;4.40;;;1.40;;
11743;SDS011;5929;51.906;7.674;2023-04-03T08:32:32;4.85;;;1.67;;
11743;SDS011;5929;51.906;7.674;2023-04-03T08:34:59;4.32;;;1.27;;
11743;SDS011;5929;51.906;7.674;2023-04-03T08:37:26;5.20;;;1.73;;
11743;SDS011;5929;51.906;7.674;2023-04-03T08:39:53;4.82;;;1.30;;
11743;SDS011;5929;51.906;7.674;2023-04-03T08:42:27;4.40;;;1.20;;
11743;SDS011;5929;51.906;7.674;2023-04-03T08:45:05;4.10;;;1.10;;
11743;SDS011;5929;51.906;7.674;2023-04-03T08:47:38;5.43;;;1.33;;
11743;SDS011;5929;51.906;7.674;2023-04-03T08:50:11;9.07;;;1.23;;
11743;SDS011;5929;51.906;7.674;2023-04-03T08:52:42;4.78;;;1.13;;
11743;SDS011;5929;51.906;7.674;2023-04-03T08:55:14;4.10;;;1.45;;
11743;SDS011;5929;51.906;7.674;2023-04-03T08:57:49;4.40;;;1.17;;
11743;SDS011;5929;51.906;7.674;2023-04-03T09:00:22;5.45;;;1.63;;
11743;SDS011;5929;51.906;7.674;2023-04-03T09:02:51;4.55;;;1.35;;
11743;SDS011;5929;51.906;7.674;2023-04-03T09:05:20;5.43;;;1.15;;
11743;SDS011;5929;51.906;7.674;2023-04-03T09:08:01;3.45;;;1.08;;
11743;SDS011;5929;51.906;7.674;2023-04-03T09:10:34;4.25;;;0.80;;
11743;SDS011;5929;51.906;7.674;2023-04-03T09:13:06;4.43;;;1.00;;
11743;SDS011;5929;51.906;7.674;2023-04-03T09:15:39;5.20;;;1.30;;
11743;SDS011;5929;51.906;7.674;2023-04-03T09:18:10;2.67;;;0.60;;
11743;SDS011;5929;51.906;7.674;2023-04-03T09:20:44;3.17;;;1.10;;
11743;SDS011;5929;51.906;7.674;2023-04-03T09:23:18;3.92;;;1.15;;
11743;SDS011;5929;51.906;7.674;2023-04-03T09:25:49;2.65;;;1.00;;
11743;SDS011;5929;51.906;7.674;2023-04-03T09:28:20;6.40;;;1.45;;
11743;SDS011;5929;51.906;7.674;2023-04-03T09:30:47;5.32;;;1.50;;
11743;SDS011;5929;51.906;7.674;2023-04-03T09:33:14;3.08;;;1.20;;
11743;SDS011;5929;51.906;7.674;2023-04-03T09:35:42;4.45;;;1.33;;
11743;SDS011;5929;51.906;7.674;2023-04-03T09:38:17;4.53;;;1.38;;
11743;SDS011;5929;51.906;7.674;2023-04-03T09:40:45;5.63;;;1.30;;
11743;SDS011;5929;51.906;7.674;2023-04-03T09:43:23;4.30;;;1.08;;
11743;SDS011;5929;51.906;7.674;2023-04-03T09:45:52;6.57;;;0.98;;
11743;SDS011;5929;51.906;7.674;2023-04-03T09:48:21;6.28;;;1.30;;
11743;SDS011;5929;51.906;7.674;2023-04-03T09:50:53;3.95;;;1.17;;
11743;SDS011;5929;51.906;7.674;2023-04-03T09:53:28;3.90;;;1.10;;
11743;SDS011;5929;51.906;7.674;2023-04-03T09:55:56;4.75;;;1.25;;
11743;SDS011;5929;51.906;7.674;2023-04-03T09:58:27;4.20;;;1.42;;
11743;SDS011;5929;51.906;7.674;2023-04-03T10:00:57;3.72;;;0.95;;
11743;SDS011;5929;51.906;7.674;2023-04-03T10:03:27;3.00;;;1.08;;
11743;SDS011;5929;51.906;7.674;2023-04-03T10:05:57;4.35;;;1.58;;
11743;SDS011;5929;51.906;7.674;2023-04-03T10:08:26;4.07;;;0.90;;
11743;SDS011;5929;51.906;7.674;2023-04-03T10:11:05;3.72;;;1.20;;
11743;SDS011;5929;51.906;7.674;2023-04-03T10:13:51;4.65;;;1.00;;
11743;SDS011;5929;51.906;7.674;2023-04-03T10:16:20;4.88;;;1.27;;
11743;SDS011;5929;51.906;7.674;2023-04-03T10:18:55;7.15;;;1.27;;
11743;SDS011;5929;51.906;7.674;2023-04-03T10:21:40;4.38;;;0.98;;
11743;SDS011;5929;51.906;7.674;2023-04-03T10:24:13;3.63;;;0.82;;
11743;SDS011;5929;51.906;7.674;2023-04-03T10:26:48;3.80;;;0.90;;
11743;SDS011;5929;51.906;7.674;2023-04-03T10:29:27;3.35;;;0.90;;
11743;SDS011;5929;51.906;7.674;2023-04-03T10:32:12;3.97;;;1.17;;
11743;SDS011;5929;51.906;7.674;2023-04-03T10:34:57;4.30;;;0.80;;
11743;SDS011;5929;51.906;7.674;2023-04-03T10:37:35;4.63;;;1.20;;
11743;SDS011;5929;51.906;7.674;2023-04-03T10:40:19;2.95;;;0.90;;
11743;SDS011;5929;51.906;7.674;2023-04-03T10:42:57;3.28;;;1.13;;
11743;SDS011;5929;51.906;7.674;2023-04-03T10:45:30;4.30;;;1.23;;
11743;SDS011;5929;51.906;7.674;2023-04-03T10:48:02;3.58;;;0.80;;
11743;SDS011;5929;51.906;7.674;2023-04-03T10:50:37;5.05;;;1.10;;
11743;SDS011;5929;51.906;7.674;2023-04-03T10:53:11;4.50;;;0.93;;
11743;SDS011;5929;51.906;7.674;2023-04-03T10:55:48;5.78;;;0.93;;
11743;SDS011;5929;51.906;7.674;2023-04-03T10:58:25;5.07;;;0.82;;
11743;SDS011;5929;51.906;7.674;2023-04-03T11:01:01;3.13;;;0.90;;
11743;SDS011;5929;51.906;7.674;2023-04-03T11:03:32;3.25;;;0.93;;
11743;SDS011;5929;51.906;7.674;2023-04-03T11:06:04;5.18;;;1.23;;
11743;SDS011;5929;51.906;7.674;2023-04-03T11:08:35;3.65;;;1.20;;
11743;SDS011;5929;51.906;7.674;2023-04-03T11:11:08;4.43;;;1.20;;
11743;SDS011;5929;51.906;7.674;2023-04-03T11:13:40;5.28;;;1.40;;
11743;SDS011;5929;51.906;7.674;2023-04-03T11:16:14;3.72;;;0.85;;
11743;SDS011;5929;51.906;7.674;2023-04-03T11:18:46;3.45;;;1.15;;
11743;SDS011;5929;51.906;7.674;2023-04-03T11:21:19;3.75;;;1.20;;
11743;SDS011;5929;51.906;7.674;2023-04-03T11:23:50;4.03;;;1.00;;
11743;SDS011;5929;51.906;7.674;2023-04-03T11:26:19;3.40;;;0.95;;
11743;SDS011;5929;51.906;7.674;2023-04-03T11:28:52;5.28;;;1.17;;
11743;SDS011;5929;51.906;7.674;2023-04-03T11:31:26;6.43;;;1.10;;
11743;SDS011;5929;51.906;7.674;2023-04-03T11:34:06;6.53;;;0.82;;
11743;SDS011;5929;51.906;7.674;2023-04-03T11:36:41;4.10;;;1.05;;
11743;SDS011;5929;51.906;7.674;2023-04-03T11:39:16;5.10;;;1.25;;
11743;SDS011;5929;51.906;7.674;2023-04-03T11:41:50;5.35;;;1.20;;
11743;SDS011;5929;51.906;7.674;2023-04-03T11:44:29;3.10;;;0.88;;
11743;SDS011;5929;51.906;7.674;2023-04-03T11:47:04;5.00;;;1.10;;
11743;SDS011;5929;51.906;7.674;2023-04-03T11:49:52;3.92;;;1.10;;
11743;SDS011;5929;51.906;7.674;2023-04-03T11:58:25;4.75;;;1.17;;
11743;SDS011;5929;51.906;7.674;2023-04-03T12:00:54;4.22;;;1.30;;
11743;SDS011;5929;51.906;7.674;2023-04-03T12:12:39;4.82;;;1.10;;
11743;SDS011;5929;51.906;7.674;2023-04-03T12:21:09;5.30;;;0.95;;
11743;SDS011;5929;51.906;7.674;2023-04-03T12:26:28;3.22;;;1.00;;
11743;SDS011;5929;51.906;7.674;2023-04-03T12:29:01;4.30;;;1.00;;
11743;SDS011;5929;51.906;7.674;2023-04-03T12:31:40;6.22;;;1.08;;
11743;SDS011;5929;51.906;7.674;2023-04-03T12:34:22;5.40;;;1.27;;
11743;SDS011;5929;51.906;7.674;2023-04-03T12:36:59;4.60;;;1.15;;
11743;SDS011;5929;51.906;7.674;2023-04-03T12:39:48;4.78;;;1.25;;
11743;SDS011;5929;51.906;7.674;2023-04-03T12:42:29;5.00;;;1.08;;
11743;SDS011;5929;51.906;7.674;2023-04-03T12:45:10;3.70;;;1.13;;
11743;SDS011;5929;51.906;7.674;2023-04-03T12:47:43;4.63;;;1.27;;
11743;SDS011;5929;51.906;7.674;2023-04-03T12:50:20;4.80;;;1.08;;
11743;SDS011;5929;51.906;7.674;2023-04-03T12:52:51;4.13;;;0.90;;
11743;SDS011;5929;51.906;7.674;2023-04-03T12:55:22;4.65;;;1.00;;
11743;SDS011;5929;51.906;7.674;2023-04-03T12:57:49;4.28;;;1.05;;
11743;SDS011;5929;51.906;7.674;2023-04-03T13:00:20;3.85;;;1.08;;
11743;SDS011;5929;51.906;7.674;2023-04-03T13:02:48;4.55;;;1.10;;
11743;SDS011;5929;51.906;7.674;2023-04-03T13:05:16;4.15;;;1.15;;
11743;SDS011;5929;51.906;7.674;2023-04-03T13:07:47;5.28;;;1.25;;
11743;SDS011;5929;51.906;7.674;2023-04-03T13:10:16;6.40;;;1.60;;
11743;SDS011;5929;51.906;7.674;2023-04-03T13:12:45;6.13;;;1.63;;
11743;SDS011;5929;51.906;7.674;2023-04-03T13:15:15;4.47;;;1.50;;
11743;SDS011;5929;51.906;7.674;2023-04-03T13:17:43;4.30;;;1.20;;
11743;SDS011;5929;51.906;7.674;2023-04-03T13:20:14;5.20;;;1.30;;
11743;SDS011;5929;51.906;7.674;2023-04-03T13:22:48;4.82;;;1.40;;
11743;SDS011;5929;51.906;7.674;2023-04-03T13:25:21;5.72;;;1.20;;
11743;SDS011;5929;51.906;7.674;2023-04-03T13:27:48;4.95;;;1.52;;
11743;SDS011;5929;51.906;7.674;2023-04-03T13:30:24;6.45;;;1.30;;
11743;SDS011;5929;51.906;7.674;2023-04-03T13:32:54;5.45;;;1.25;;
11743;SDS011;5929;51.906;7.674;2023-04-03T13:35:28;4.95;;;1.20;;
11743;SDS011;5929;51.906;7.674;2023-04-03T13:38:00;4.07;;;1.15;;
11743;SDS011;5929;51.906;7.674;2023-04-03T13:40:29;2.63;;;0.90;;
11743;SDS011;5929;51.906;7.674;2023-04-03T13:43:00;5.30;;;1.13;;
11743;SDS011;5929;51.906;7.674;2023-04-03T13:45:29;5.20;;;1.15;;
11743;SDS011;5929;51.906;7.674;2023-04-03T13:48:09;5.90;;;1.27;;
11743;SDS011;5929;51.906;7.674;2023-04-03T13:50:52;4.05;;;1.25;;
11743;SDS011;5929;51.906;7.674;2023-04-03T13:53:24;4.90;;;1.38;;
11743;SDS011;5929;51.906;7.674;2023-04-03T13:55:56;4.05;;;1.20;;
11743;SDS011;5929;51.906;7.674;2023-04-03T13:58:26;6.00;;;1.40;;
11743;SDS011;5929;51.906;7.674;2023-04-03T14:00:55;6.70;;;1.35;;
11743;SDS011;5929;51.906;7.674;2023-04-03T14:03:33;4.22;;;1.20;;
11743;SDS011;5929;51.906;7.674;2023-04-03T14:06:10;4.60;;;1.33;;
11743;SDS011;5929;51.906;7.674;2023-04-03T14:08:39;3.67;;;1.10;;
11743;SDS011;5929;51.906;7.674;2023-04-03T14:11:08;5.53;;;1.00;;
11743;SDS011;5929;51.906;7.674;2023-04-03T14:13:40;5.32;;;1.33;;
11743;SDS011;5929;51.906;7.674;2023-04-03T14:16:13;4.30;;;1.15;;
11743;SDS011;5929;51.906;7.674;2023-04-03T14:18:41;4.25;;;1.08;;
11743;SDS011;5929;51.906;7.674;2023-04-03T14:21:10;5.03;;;1.67;;
11743;SDS011;5929;51.906;7.674;2023-04-03T14:23:40;5.18;;;1.30;;
11743;SDS011;5929;51.906;7.674;2023-04-03T14:26:08;5.60;;;1.20;;
11743;SDS011;5929;51.906;7.674;2023-04-03T14:28:38;6.07;;;1.75;;
11743;SDS011;5929;51.906;7.674;2023-04-03T14:31:05;5.03;;;1.20;;
11743;SDS011;5929;51.906;7.674;2023-04-03T14:33:32;4.03;;;1.08;;
11743;SDS011;5929;51.906;7.674;2023-04-03T14:36:00;5.32;;;1.20;;
11743;SDS011;5929;51.906;7.674;2023-04-03T14:38:29;4.47;;;1.27;;
11743;SDS011;5929;51.906;7.674;2023-04-03T14:40:58;8.57;;;1.67;;
11743;SDS011;5929;51.906;7.674;2023-04-03T14:43:25;4.28;;;1.20;;
11743;SDS011;5929;51.906;7.674;2023-04-03T14:45:52;5.90;;;1.63;;
11743;SDS011;5929;51.906;7.674;2023-04-03T14:48:20;5.03;;;1.30;;
11743;SDS011;5929;51.906;7.674;2023-04-03T14:50:49;4.47;;;1.15;;
11743;SDS011;5929;51.906;7.674;2023-04-03T14:53:18;4.30;;;1.02;;
11743;SDS011;5929;51.906;7.674;2023-04-03T14:55:47;3.70;;;1.30;;
11743;SDS011;5929;51.906;7.674;2023-04-03T14:58:18;5.90;;;1.30;;
11743;SDS011;5929;51.906;7.674;2023-04-03T15:00:49;5.03;;;1.67;;
11743;SDS011;5929;51.906;7.674;2023-04-03T15:03:16;4.03;;;0.93;;
11743;SDS011;5929;51.906;7.674;2023-04-03T15:05:45;6.32;;;1.35;;
11743;SDS011;5929;51.906;7.674;2023-04-03T15:08:17;4.43;;;1.25;;
11743;SDS011;5929;51.906;7.674;2023-04-03T15:10:46;5.68;;;1.25;;
11743;SDS011;5929;51.906;7.674;2023-04-03T15:13:17;4.18;;;1.13;;
11743;SDS011;5929;51.906;7.674;2023-04-03T15:15:45;4.63;;;1.50;;
11743;SDS011;5929;51.906;7.674;2023-04-03T15:18:14;5.38;;;1.30;;
11743;SDS011;5929;51.906;7.674;2023-04-03T15:20:44;6.63;;;1.15;;
11743;SDS011;5929;51.906;7.674;2023-04-03T15:23:11;3.60;;;1.38;;
11743;SDS011;5929;51.906;7.674;2023-04-03T15:25:40;5.22;;;1.40;;
11743;SDS011;5929;51.906;7.674;2023-04-03T15:28:08;4.35;;;1.33;;
11743;SDS011;5929;51.906;7.674;2023-04-03T15:30:38;4.22;;;1.15;;
11743;SDS011;5929;51.906;7.674;2023-04-03T15:33:06;3.78;;;1.27;;
11743;SDS011;5929;51.906;7.674;2023-04-03T15:35:33;6.43;;;1.33;;
11743;SDS011;5929;51.906;7.674;2023-04-03T15:38:00;5.50;;;1.55;;
11743;SDS011;5929;51.906;7.674;2023-04-03T15:40:29;5.20;;;1.67;;
11743;SDS011;5929;51.906;7.674;2023-04-03T15:42:56;6.35;;;1.27;;